createdAt,value
2022-09-07T00:03:44.067Z,18.02
2022-09-07T00:06:13.263Z,13.00
2022-09-07T00:08:43.803Z,12.38
2022-09-07T00:11:17.951Z,14.13
2022-09-07T00:13:48.057Z,11.65
2022-09-07T00:16:35.435Z,13.18
2022-09-07T00:19:04.564Z,13.82
2022-09-07T00:21:32.356Z,11.40
2022-09-07T00:24:02.592Z,15.32
2022-09-07T00:26:31.003Z,12.80
2022-09-07T00:29:00.854Z,11.15
2022-09-07T00:31:30.266Z,18.73
2022-09-07T00:34:01.077Z,15.20
2022-09-07T00:36:31.513Z,19.13
2022-09-07T00:38:59.096Z,14.23
2022-09-07T00:41:26.198Z,16.88
2022-09-07T00:43:57.461Z,14.80
2022-09-07T00:46:30.864Z,15.32
2022-09-07T00:49:16.755Z,16.77
2022-09-07T00:51:52.579Z,21.00
2022-09-07T00:54:25.533Z,9.98
2022-09-07T00:56:53.810Z,18.13
2022-09-07T00:59:29.349Z,17.58
2022-09-07T01:01:56.724Z,11.88
2022-09-07T01:04:24.874Z,19.42
2022-09-07T01:06:51.963Z,12.40
2022-09-07T01:09:22.406Z,15.75
2022-09-07T01:11:51.388Z,13.40
2022-09-07T01:14:26.613Z,9.30
2022-09-07T01:17:34.109Z,11.27
2022-09-07T01:20:36.213Z,9.18
2022-09-07T01:24:05.177Z,11.48
2022-09-07T01:27:09.681Z,16.23
2022-09-07T01:30:07.168Z,14.32
2022-09-07T01:33:10.495Z,12.25
2022-09-07T01:36:03.789Z,21.05
2022-09-07T01:38:38.896Z,13.52
2022-09-07T01:41:41.712Z,14.55
2022-09-07T01:44:26.224Z,14.48
2022-09-07T01:47:31.275Z,10.48
2022-09-07T01:50:13.321Z,11.23
2022-09-07T01:52:55.510Z,11.82
2022-09-07T01:55:30.530Z,15.20
2022-09-07T01:58:20.989Z,17.50
2022-09-07T02:01:11.584Z,14.13
2022-09-07T02:03:52.685Z,14.95
2022-09-07T02:06:41.119Z,16.60
2022-09-07T02:09:40.974Z,8.80
2022-09-07T02:12:15.895Z,13.95
2022-09-07T02:14:52.361Z,12.63
2022-09-07T02:17:34.156Z,14.85
2022-09-07T02:20:23.827Z,11.00
2022-09-07T02:22:57.887Z,12.55
2022-09-07T02:25:30.546Z,15.90
2022-09-07T02:28:10.678Z,22.95
2022-09-07T02:30:37.846Z,16.83
2022-09-07T02:33:05.157Z,13.88
2022-09-07T02:35:32.902Z,13.63
2022-09-07T02:38:03.816Z,8.10
2022-09-07T02:40:31.451Z,12.38
2022-09-07T02:43:05.430Z,17.00
2022-09-07T02:46:03.867Z,10.68
2022-09-07T02:49:01.698Z,8.43
2022-09-07T02:52:00.428Z,11.20
2022-09-07T02:54:37.868Z,11.73
2022-09-07T02:57:13.526Z,11.02
2022-09-07T03:00:26.383Z,11.25
2022-09-07T03:03:26.682Z,12.70
2022-09-07T03:06:00.682Z,7.13
2022-09-07T03:08:55.358Z,9.57
2022-09-07T03:11:23.181Z,10.50
2022-09-07T03:13:50.295Z,11.07
2022-09-07T03:16:17.481Z,10.07
2022-09-07T03:18:44.841Z,13.40
2022-09-07T03:21:12.176Z,14.13
2022-09-07T03:23:39.633Z,9.13
2022-09-07T03:26:06.840Z,17.92
2022-09-07T03:28:34.217Z,11.85
2022-09-07T03:31:03.420Z,11.07
2022-09-07T03:33:34.414Z,12.82
2022-09-07T03:36:02.609Z,14.43
2022-09-07T03:38:31.240Z,8.20
2022-09-07T03:41:04.085Z,11.25
2022-09-07T03:43:34.531Z,8.85
2022-09-07T03:46:04.732Z,13.20
2022-09-07T03:48:33.950Z,9.20
2022-09-07T03:51:07.753Z,11.15
2022-09-07T03:53:40.490Z,11.88
2022-09-07T03:56:20.625Z,13.20
2022-09-07T03:58:49.019Z,16.00
2022-09-07T04:01:20.052Z,7.30
2022-09-07T04:03:48.144Z,14.77
2022-09-07T04:06:16.157Z,10.52
2022-09-07T04:08:43.885Z,8.65
2022-09-07T04:11:14.880Z,12.63
2022-09-07T04:13:42.330Z,10.98
2022-09-07T04:16:12.116Z,8.93
2022-09-07T04:18:40.009Z,9.93
2022-09-07T04:21:07.406Z,12.68
2022-09-07T04:23:34.444Z,10.43
2022-09-07T04:26:01.666Z,14.02
2022-09-07T04:28:30.980Z,11.05
2022-09-07T04:31:04.270Z,15.02
2022-09-07T04:33:32.750Z,15.68
2022-09-07T04:36:01.375Z,12.60
2022-09-07T04:38:31.811Z,12.15
2022-09-07T04:41:09.581Z,8.32
2022-09-07T04:43:38.091Z,9.48
2022-09-07T04:46:19.662Z,13.93
2022-09-07T06:01:36.592Z,17.80
2022-09-07T06:04:04.044Z,18.50
2022-09-07T06:06:31.305Z,12.40
2022-09-07T06:09:00.655Z,14.70
2022-09-07T06:11:28.019Z,13.35
2022-09-07T06:13:55.908Z,17.02
2022-09-07T06:16:23.084Z,11.02
2022-09-07T06:18:50.593Z,15.38
2022-09-07T06:21:21.015Z,14.63
2022-09-07T06:23:49.383Z,16.48
2022-09-07T06:26:17.786Z,22.00
2022-09-07T06:28:50.174Z,14.55
2022-09-07T06:31:23.680Z,17.90
2022-09-07T06:33:51.946Z,10.63
2022-09-07T06:36:25.570Z,13.18
2022-09-07T06:38:52.754Z,17.27
2022-09-07T06:44:09.826Z,14.90
2022-09-07T06:49:25.065Z,16.63
2022-09-07T06:51:52.136Z,15.80
2022-09-07T06:57:09.384Z,17.55
2022-09-07T06:59:37.332Z,17.20
2022-09-07T07:02:06.461Z,21.10
2022-09-07T07:04:39.490Z,18.45
2022-09-07T07:07:14.119Z,17.38
2022-09-07T07:09:41.879Z,22.23
2022-09-07T07:12:10.549Z,22.83
2022-09-07T07:14:41.085Z,20.33
2022-09-07T07:17:11.621Z,18.20
2022-09-07T07:19:38.618Z,27.73
2022-09-07T07:22:23.415Z,20.10
2022-09-07T07:24:52.962Z,32.00
2022-09-07T07:27:21.645Z,29.55
2022-09-07T07:29:48.822Z,24.30
2022-09-07T07:32:16.153Z,24.10
2022-09-07T07:34:43.310Z,23.45
2022-09-07T07:37:10.295Z,26.50
2022-09-07T07:42:24.221Z,24.45
2022-09-07T07:47:38.646Z,20.98
2022-09-07T07:55:43.772Z,23.75
2022-09-07T07:58:11.024Z,35.13
2022-09-07T08:00:53.655Z,24.98
2022-09-07T08:03:23.446Z,34.53
2022-09-07T08:05:50.490Z,26.67
2022-09-07T08:08:17.694Z,20.55
2022-09-07T08:10:46.220Z,25.17
2022-09-07T08:13:14.387Z,28.80
2022-09-07T08:15:47.490Z,23.42
2022-09-07T08:18:16.568Z,22.10
2022-09-07T08:20:43.676Z,26.92
2022-09-07T08:23:10.960Z,22.73
2022-09-07T08:25:37.997Z,22.20
2022-09-07T08:28:05.441Z,20.23
2022-09-07T08:30:32.539Z,27.45
2022-09-07T08:33:02.460Z,20.42
2022-09-07T08:35:34.357Z,21.85
2022-09-07T08:38:01.562Z,20.88
2022-09-07T08:40:32.418Z,21.23
2022-09-07T08:46:09.242Z,19.50
2022-09-07T08:48:36.547Z,20.85
2022-09-07T08:51:43.575Z,22.55
2022-09-07T08:54:16.951Z,23.25
2022-09-07T10:05:33.951Z,20.23
2022-09-07T10:08:13.860Z,20.98
2022-09-07T10:11:07.227Z,16.33
2022-09-07T10:13:44.148Z,18.88
2022-09-07T10:16:15.178Z,24.23
2022-09-07T10:18:56.947Z,16.85
2022-09-07T10:21:31.919Z,18.33
2022-09-07T10:24:05.983Z,19.88
2022-09-07T10:26:36.398Z,14.68
2022-09-07T10:29:17.204Z,15.15
2022-09-07T10:31:57.596Z,17.52
2022-09-07T10:34:46.439Z,18.63
2022-09-07T10:37:25.125Z,13.80
2022-09-07T10:40:29.157Z,16.70
2022-09-07T10:43:23.020Z,19.65
2022-09-07T10:46:56.330Z,14.90
2022-09-07T10:49:32.796Z,12.38
2022-09-07T10:52:30.710Z,19.30
2022-09-07T10:55:08.699Z,21.80
2022-09-07T10:58:00.638Z,18.45
2022-09-07T11:00:36.948Z,16.95
2022-09-07T11:03:36.602Z,14.00
2022-09-07T11:06:35.785Z,14.43
2022-09-07T11:09:18.608Z,15.55
2022-09-07T11:12:15.584Z,14.10
2022-09-07T11:15:09.256Z,14.32
2022-09-07T11:17:55.214Z,12.13
2022-09-07T11:20:39.618Z,16.02
2022-09-07T11:23:26.669Z,19.90
2022-09-07T11:26:11.715Z,14.35
2022-09-07T11:31:51.343Z,19.75
2022-09-07T11:34:25.334Z,19.50
2022-09-07T11:37:18.976Z,15.30
2022-09-07T11:40:04.929Z,15.75
2022-09-07T11:42:49.920Z,16.50
2022-09-07T13:00:18.270Z,12.02
2022-09-07T14:10:17.926Z,16.80
2022-09-07T14:12:49.131Z,13.57
2022-09-07T14:18:15.614Z,13.73
2022-09-07T14:20:51.260Z,18.98
2022-09-07T14:23:34.957Z,17.25
2022-09-07T14:26:19.254Z,14.45
2022-09-07T14:28:53.758Z,13.52
2022-09-07T14:31:23.269Z,11.15
2022-09-07T14:33:57.029Z,19.38
2022-09-07T14:36:45.717Z,11.48
2022-09-07T14:39:16.721Z,12.90
2022-09-07T14:41:44.517Z,14.95
2022-09-07T14:44:31.802Z,18.25
2022-09-07T14:47:06.183Z,16.17
2022-09-07T14:49:36.787Z,15.70
2022-09-07T14:52:04.409Z,15.93
2022-09-07T14:54:38.181Z,14.48
2022-09-07T14:57:09.837Z,10.00
2022-09-07T14:59:47.781Z,16.67
2022-09-07T15:02:25.690Z,11.63
2022-09-07T15:05:14.552Z,10.68
2022-09-07T15:07:47.771Z,13.75
2022-09-07T15:10:20.804Z,15.48
2022-09-07T15:13:08.492Z,13.73
2022-09-07T15:15:41.762Z,16.13
2022-09-07T15:19:02.786Z,12.70
2022-09-07T15:21:35.745Z,11.60
2022-09-07T15:27:02.986Z,15.68
2022-09-07T15:29:33.490Z,17.58
2022-09-07T15:32:09.304Z,24.92
2022-09-07T15:34:36.658Z,13.38
2022-09-07T19:22:14.064Z,11.27
2022-09-07T19:24:41.199Z,15.77
2022-09-07T19:27:08.334Z,18.42
2022-09-07T19:29:35.493Z,15.40
2022-09-07T19:32:08.946Z,17.25
2022-09-07T19:34:45.526Z,12.55
2022-09-07T19:37:13.595Z,17.17
2022-09-07T19:39:40.725Z,15.30
2022-09-07T19:42:08.046Z,14.30
2022-09-07T19:44:35.312Z,18.42
2022-09-07T19:47:05.389Z,22.25
2022-09-07T19:49:35.624Z,16.63
2022-09-07T19:52:08.793Z,18.50
2022-09-07T21:49:14.636Z,34.20
2022-09-07T21:51:41.647Z,32.88
2022-09-07T23:21:27.406Z,36.53
